Time;durP1;ratioP1;P1;durP2;ratioP2;P2;SDS_P1;SDS_P2;PMS_P1;PMS_P2;Temp;Humidity;BMP_temperature;BMP_pressure;BME280_temperature;BME280_humidity;BME280_pressure;Samples;Min_cycle;Max_cycle;Signal;HPM_P1;HPM_P2
2023/10/14 00:01:04;;;;;;;6.85;1.90;;;12.30;99.90;;;;;;4916290;29;20052;-87
2023/10/14 00:03:42;;;;;;;11.73;3.60;;;12.20;99.90;;;;;;4915675;23;20492;-88
2023/10/14 00:06:24;;;;;;;5.47;1.50;;;13.90;99.90;;;;;;4901152;29;20147;-87
2023/10/14 00:12:37;;;;;;;6.43;1.50;;;12.80;99.90;;;;;;4915578;29;20060;-88
2023/10/14 00:15:06;;;;;;;5.38;1.58;;;12.70;99.90;;;;;;4928794;29;20056;-88
2023/10/14 00:17:37;;;;;;;3.60;1.38;;;12.60;99.90;;;;;;4900719;29;20132;-88
2023/10/14 00:20:38;;;;;;;5.22;1.30;;;13.60;99.90;;;;;;4900358;29;20099;-87
2023/10/14 00:23:16;;;;;;;4.80;1.45;;;12.60;99.90;;;;;;4899832;29;20496;-87
2023/10/14 00:25:59;;;;;;;5.50;1.50;;;13.70;99.90;;;;;;4899644;29;20056;-87
2023/10/14 00:31:06;;;;;;;6.20;1.52;;;12.60;99.90;;;;;;4879806;29;20064;-87
2023/10/14 00:33:39;;;;;;;5.95;1.60;;;12.80;99.90;;;;;;4882432;29;20067;-87
2023/10/14 00:36:10;;;;;;;6.40;1.45;;;13.90;99.90;;;;;;4896858;29;20052;-88
2023/10/14 00:38:57;;;;;;;6.65;1.75;;;12.70;99.90;;;;;;4942159;23;20048;-89
2023/10/14 00:41:25;;;;;;;5.68;1.70;;;12.90;99.90;;;;;;4917092;23;20135;-88
2023/10/14 00:44:07;;;;;;;7.90;2.00;;;13.30;99.90;;;;;;4894302;29;20140;-88
2023/10/14 00:46:48;;;;;;;5.35;1.55;;;12.80;99.90;;;;;;4897170;29;20488;-88
2023/10/14 00:49:35;;;;;;;7.47;1.70;;;13.10;99.90;;;;;;4895840;29;20492;-87
2023/10/14 00:52:22;;;;;;;6.95;1.70;;;13.80;99.90;;;;;;4928677;29;20052;-88
2023/10/14 00:57:40;;;;;;;7.30;1.80;;;13.60;99.90;;;;;;4912207;29;20489;-87
2023/10/14 01:00:34;;;;;;;7.57;1.60;;;13.70;99.90;;;;;;4896949;29;20044;-88
2023/10/14 01:03:15;;;;;;;7.93;1.70;;;12.00;99.90;;;;;;4928413;29;20056;-86
2023/10/14 01:15:21;;;;;;;9.77;1.70;;;12.30;99.90;;;;;;5167863;23;20048;-87
2023/10/14 01:18:14;;;;;;;9.52;1.90;;;12.50;99.90;;;;;;4917997;29;20187;-87
2023/10/14 01:20:58;;;;;;;10.77;1.80;;;12.20;99.90;;;;;;4918798;29;20048;-87
2023/10/14 01:23:30;;;;;;;10.18;1.85;;;13.00;99.90;;;;;;4918211;29;20150;-87
2023/10/14 01:25:58;;;;;;;8.77;2.10;;;12.90;99.90;;;;;;4917737;29;20455;-87
2023/10/14 01:28:44;;;;;;;10.35;2.10;;;12.00;99.90;;;;;;4918337;29;20055;-88
2023/10/14 01:31:44;;;;;;;9.43;1.90;;;13.20;99.90;;;;;;4918114;29;20048;-87
2023/10/14 01:36:44;;;;;;;11.18;2.53;;;11.90;99.90;;;;;;5081610;23;20075;-87
2023/10/14 01:39:30;;;;;;;10.45;2.15;;;11.80;99.90;;;;;;4898999;29;20112;-86
2023/10/14 01:42:19;;;;;;;11.77;2.67;;;11.80;99.90;;;;;;4900041;29;20048;-87
2023/10/14 01:44:58;;;;;;;12.18;2.08;;;11.80;99.90;;;;;;4847841;29;20229;-87
2023/10/14 01:47:25;;;;;;;11.45;1.98;;;12.40;99.90;;;;;;4901432;23;20108;-87
2023/10/14 01:49:53;;;;;;;8.00;2.00;;;12.90;99.90;;;;;;4905616;23;20117;-86
2023/10/14 01:52:34;;;;;;;14.80;2.35;;;12.70;99.90;;;;;;4898900;29;20497;-87
2023/10/14 01:55:20;;;;;;;9.02;1.88;;;11.60;99.90;;;;;;4898103;29;20062;-87
2023/10/14 01:57:47;;;;;;;11.50;2.30;;;11.30;99.90;;;;;;4899070;29;20044;-86
2023/10/14 02:00:24;;;;;;;9.27;2.10;;;12.80;99.90;;;;;;4898359;29;20039;-86
2023/10/14 02:03:23;;;;;;;13.75;2.30;;;11.30;99.90;;;;;;4900342;29;20056;-86
2023/10/14 02:06:16;;;;;;;11.57;2.22;;;12.30;99.90;;;;;;4902998;29;20099;-87
2023/10/14 02:09:00;;;;;;;10.23;2.58;;;12.40;99.90;;;;;;4899715;29;20557;-87
2023/10/14 02:11:35;;;;;;;11.73;2.17;;;12.00;99.90;;;;;;4911730;23;20445;-87
2023/10/14 02:14:27;;;;;;;11.80;2.42;;;11.10;99.90;;;;;;4920686;29;20055;-87
2023/10/14 02:17:02;;;;;;;17.42;2.35;;;11.00;99.90;;;;;;4920528;29;20067;-86
2023/10/14 02:19:50;;;;;;;11.07;2.20;;;12.20;99.90;;;;;;4922053;29;20062;-87
2023/10/14 02:22:38;;;;;;;11.68;2.40;;;10.50;99.90;;;;;;4920916;29;20130;-87
2023/10/14 02:25:20;;;;;;;12.27;2.25;;;12.10;99.90;;;;;;4978432;23;20516;-86
2023/10/14 02:28:06;;;;;;;10.27;2.33;;;10.90;99.90;;;;;;4902237;29;20052;-86
2023/10/14 02:30:32;;;;;;;16.02;2.40;;;10.90;99.90;;;;;;4959874;23;20059;-86
2023/10/14 02:32:58;;;;;;;12.70;2.40;;;12.10;99.90;;;;;;4884482;29;20053;-86
2023/10/14 02:35:24;;;;;;;10.75;2.30;;;10.90;99.90;;;;;;4929979;29;20161;-86
2023/10/14 02:38:24;;;;;;;15.90;2.85;;;10.90;99.90;;;;;;4897252;29;20627;-86
2023/10/14 02:41:03;;;;;;;11.30;2.30;;;11.60;99.90;;;;;;4899739;29;20051;-86
2023/10/14 02:43:36;;;;;;;10.20;2.20;;;11.60;99.90;;;;;;4883789;29;20433;-87
2023/10/14 02:55:25;;;;;;;13.35;2.40;;;9.70;99.90;;;;;;4897136;29;20116;-88
2023/10/14 02:58:04;;;;;;;;;;;11.40;99.90;;;;;;4899483;29;20044;-87
2023/10/14 03:00:58;;;;;;;10.25;2.53;;;11.00;99.90;;;;;;4898539;29;19919;-87
2023/10/14 03:03:29;;;;;;;11.68;2.50;;;10.90;99.90;;;;;;4898033;29;20200;-86
2023/10/14 03:06:05;;;;;;;12.38;2.90;;;10.40;99.90;;;;;;4900032;29;20043;-87
2023/10/14 03:08:59;;;;;;;15.65;3.97;;;10.30;99.90;;;;;;4898946;29;20048;-86
2023/10/14 03:11:31;;;;;;;16.42;3.10;;;11.70;99.90;;;;;;4898193;29;20048;-87
2023/10/14 03:14:02;;;;;;;16.02;4.00;;;10.20;99.90;;;;;;4898166;29;20052;-87
2023/10/14 03:16:46;;;;;;;15.95;3.65;;;10.80;99.90;;;;;;4898145;29;20055;-87
2023/10/14 03:26:32;;;;;;;15.68;3.75;;;10.00;99.90;;;;;;4936895;29;20043;-86
2023/10/14 03:29:04;;;;;;;11.02;2.80;;;10.00;99.90;;;;;;4921696;29;20052;-87
2023/10/14 03:31:35;;;;;;;13.63;3.40;;;10.90;99.90;;;;;;4954255;29;20048;-87
2023/10/14 03:34:31;;;;;;;15.23;3.53;;;10.00;99.90;;;;;;4988537;23;20043;-86
2023/10/14 03:37:00;;;;;;;13.23;3.20;;;9.90;99.90;;;;;;4920199;29;20141;-87
2023/10/14 03:40:51;;;;;;;14.75;3.22;;;11.10;99.90;;;;;;4960293;23;20056;-87
2023/10/14 03:46:47;;;;;;;14.23;3.88;;;10.40;99.90;;;;;;4919320;29;20130;-86
2023/10/14 03:49:32;;;;;;;17.97;6.33;;;9.80;99.90;;;;;;4965976;23;20139;-87
2023/10/14 03:52:01;;;;;;;13.35;3.33;;;11.10;99.90;;;;;;4917514;23;20060;-87
2023/10/14 03:54:31;;;;;;;21.90;4.53;;;9.60;99.90;;;;;;4950584;23;20047;-86
2023/10/14 03:57:03;;;;;;;10.25;3.20;;;10.40;99.90;;;;;;4906976;23;20067;-87
2023/10/14 03:59:38;;;;;;;13.27;4.15;;;10.50;99.90;;;;;;4900057;29;20360;-87
2023/10/14 04:02:08;;;;;;;11.75;2.40;;;10.40;99.90;;;;;;4896865;29;20630;-87
2023/10/14 04:04:46;;;;;;;10.75;3.22;;;9.60;99.90;;;;;;4899685;29;20058;-88
2023/10/14 04:10:54;;;;;;;12.65;2.55;;;10.20;99.90;;;;;;4920237;29;20050;-87
2023/10/14 04:14:13;;;;;;;12.20;2.30;;;9.70;99.90;;;;;;4918167;29;20047;-86
2023/10/14 04:17:54;;;;;;;14.30;3.00;;;9.60;99.90;;;;;;4935713;29;20063;-87
2023/10/14 04:33:17;;;;;;;11.43;2.92;;;9.60;99.90;;;;;;4877484;29;20045;-87
2023/10/14 04:38:44;;;;;;;15.93;3.45;;;11.10;99.90;;;;;;4899177;23;20052;-87
2023/10/14 04:41:14;;;;;;;11.77;2.70;;;9.70;99.90;;;;;;4902785;23;20278;-87
2023/10/14 04:44:13;;;;;;;19.85;3.75;;;10.90;99.90;;;;;;4934731;23;20080;-86
2023/10/14 04:46:54;;;;;;;12.98;2.67;;;9.70;99.90;;;;;;4878825;29;20517;-87
2023/10/14 04:49:51;;;;;;;13.73;3.30;;;10.80;99.90;;;;;;4901220;23;20143;-86
2023/10/14 04:52:48;;;;;;;11.75;2.42;;;9.70;99.90;;;;;;4890534;29;20050;-86
2023/10/14 04:55:43;;;;;;;12.02;2.80;;;10.20;99.90;;;;;;4900171;29;20063;-87
2023/10/14 04:58:23;;;;;;;10.60;2.05;;;9.70;99.90;;;;;;4899614;29;20058;-87
2023/10/14 05:01:17;;;;;;;12.90;2.92;;;9.70;99.90;;;;;;4913174;23;20432;-86
2023/10/14 05:04:10;;;;;;;15.98;3.67;;;10.50;99.90;;;;;;4915963;29;20047;-85
2023/10/14 05:06:52;;;;;;;14.88;3.70;;;10.80;99.90;;;;;;4901341;29;20457;-87
2023/10/14 05:09:30;;;;;;;12.60;3.50;;;9.70;99.90;;;;;;4901983;29;20106;-83
2023/10/14 05:12:00;;;;;;;14.95;3.50;;;10.50;99.90;;;;;;4900067;29;20052;-83
2023/10/14 05:14:36;;;;;;;14.55;3.45;;;9.50;99.90;;;;;;4899886;29;20116;-84
2023/10/14 05:17:16;;;;;;;16.73;4.07;;;9.70;99.90;;;;;;4900307;29;20083;-83
2023/10/14 05:19:43;;;;;;;19.93;5.93;;;10.50;99.90;;;;;;4899744;29;20100;-83
2023/10/14 05:22:19;;;;;;;15.47;3.77;;;10.00;99.90;;;;;;4899750;29;20040;-85
2023/10/14 05:24:48;;;;;;;18.03;3.53;;;9.40;99.90;;;;;;4930926;29;20052;-84
2023/10/14 05:27:21;;;;;;;16.33;4.00;;;10.40;99.90;;;;;;4930882;29;20048;-84
2023/10/14 05:29:51;;;;;;;22.57;6.57;;;9.40;99.90;;;;;;4899709;29;20056;-84
2023/10/14 05:32:24;;;;;;;16.20;4.90;;;9.30;99.90;;;;;;4898817;29;20048;-85
2023/10/14 05:34:51;;;;;;;20.95;5.20;;;10.50;99.90;;;;;;4899479;29;20464;-84
2023/10/14 05:37:23;;;;;;;18.85;3.58;;;10.30;99.90;;;;;;4899464;29;20044;-83
2023/10/14 05:39:54;;;;;;;13.65;2.55;;;9.60;99.90;;;;;;4898287;29;20146;-83
2023/10/14 05:42:22;;;;;;;13.55;2.42;;;9.30;99.90;;;;;;4899491;29;20040;-84
2023/10/14 05:44:49;;;;;;;15.98;2.70;;;9.30;99.90;;;;;;4899182;29;20104;-84
2023/10/14 05:47:16;;;;;;;16.45;3.20;;;9.20;99.90;;;;;;4899195;29;20134;-84
2023/10/14 05:49:45;;;;;;;15.50;3.80;;;9.20;99.90;;;;;;4931362;29;20542;-83
2023/10/14 05:52:14;;;;;;;12.02;2.65;;;10.10;99.90;;;;;;4898210;29;20063;-84
2023/10/14 05:54:41;;;;;;;18.85;3.72;;;9.10;99.90;;;;;;4899290;29;20055;-85
2023/10/14 05:57:10;;;;;;;19.30;3.67;;;9.00;99.90;;;;;;4898350;29;20055;-82
2023/10/14 05:59:37;;;;;;;15.13;2.88;;;9.00;99.90;;;;;;4911749;29;20048;-83
2023/10/14 06:02:07;;;;;;;16.23;3.95;;;10.10;99.90;;;;;;4880583;29;20102;-83
2023/10/14 06:04:39;;;;;;;16.83;4.20;;;9.00;99.90;;;;;;4880679;29;20060;-83
2023/10/14 06:07:07;;;;;;;21.70;6.07;;;9.00;99.90;;;;;;4879929;29;20044;-83
2023/10/14 06:09:32;;;;;;;13.25;2.50;;;9.10;99.90;;;;;;4880700;29;20063;-83
2023/10/14 06:11:58;;;;;;;13.43;3.65;;;8.90;99.90;;;;;;4880727;29;20040;-84
2023/10/14 06:14:25;;;;;;;13.00;3.35;;;8.90;99.90;;;;;;4879625;29;20041;-83
2023/10/14 06:16:51;;;;;;;19.27;4.43;;;9.60;99.90;;;;;;4911819;29;20531;-83
2023/10/14 06:19:18;;;;;;;14.70;2.70;;;8.90;99.90;;;;;;4880470;29;20041;-85
2023/10/14 06:21:49;;;;;;;10.00;2.65;;;8.80;99.90;;;;;;4880827;29;20096;-84
2023/10/14 06:24:34;;;;;;;21.92;11.15;;;8.80;99.90;;;;;;4880247;29;20051;-84
2023/10/14 06:27:08;;;;;;;;;;;10.30;99.90;;;;;;4880676;29;20083;-83
2023/10/14 06:29:35;;;;;;;48.63;29.30;;;8.80;99.90;;;;;;4912105;29;20291;-84
2023/10/14 06:32:16;;;;;;;23.92;10.65;;;9.30;99.90;;;;;;4880539;29;20060;-84
2023/10/14 06:34:44;;;;;;;76.53;49.92;;;10.10;99.90;;;;;;4880464;29;20051;-84
2023/10/14 06:37:19;;;;;;;28.17;14.95;;;8.70;99.90;;;;;;4881085;29;20044;-83
2023/10/14 06:39:58;;;;;;;48.42;26.63;;;8.80;99.90;;;;;;4881665;29;20146;-84
2023/10/14 06:42:44;;;;;;;42.42;23.85;;;9.60;99.90;;;;;;4912674;29;20056;-86
2023/10/14 06:45:23;;;;;;;18.50;4.05;;;9.70;99.90;;;;;;4882435;29;20136;-85
2023/10/14 06:47:58;;;;;;;39.22;23.30;;;10.30;99.90;;;;;;4882010;29;20135;-84
2023/10/14 06:50:24;;;;;;;21.40;9.90;;;9.00;99.90;;;;;;4884109;29;20052;-83
2023/10/14 06:52:53;;;;;;;29.10;18.05;;;10.00;99.90;;;;;;4915802;29;20055;-83
2023/10/14 06:55:23;;;;;;;34.95;23.33;;;9.10;99.90;;;;;;4900403;29;20049;-83
2023/10/14 06:57:53;;;;;;;17.38;6.88;;;10.20;99.90;;;;;;4884298;29;20080;-83
2023/10/14 07:00:25;;;;;;;25.25;13.13;;;9.10;99.90;;;;;;4883987;29;20143;-83
2023/10/14 07:02:54;;;;;;;14.95;7.80;;;9.20;99.90;;;;;;4884321;29;20493;-83
2023/10/14 07:05:24;;;;;;;16.98;6.30;;;9.20;99.90;;;;;;4884612;29;20052;-83
2023/10/14 07:07:49;;;;;;;17.10;7.93;;;9.20;99.90;;;;;;4901891;29;20354;-83
2023/10/14 07:10:16;;;;;;;17.95;8.02;;;9.30;99.90;;;;;;4888024;29;20052;-84
2023/10/14 07:12:42;;;;;;;17.45;3.75;;;10.30;99.90;;;;;;4934892;29;20052;-83
2023/10/14 07:15:14;;;;;;;18.13;4.20;;;9.40;99.90;;;;;;4903621;29;20059;-84
2023/10/14 07:17:42;;;;;;;21.63;12.45;;;9.50;99.90;;;;;;4902026;29;20551;-83
2023/10/14 07:20:12;;;;;;;19.40;10.98;;;9.50;99.90;;;;;;4903077;29;20408;-83
2023/10/14 07:22:42;;;;;;;27.02;15.82;;;9.60;99.90;;;;;;4903382;29;20044;-83
2023/10/14 07:25:11;;;;;;;23.15;14.90;;;9.70;99.90;;;;;;4903235;29;20052;-83
2023/10/14 07:27:38;;;;;;;19.85;9.15;;;9.70;99.90;;;;;;4902716;29;20054;-84
2023/10/14 07:30:14;;;;;;;27.50;16.48;;;10.30;99.90;;;;;;4932112;29;20199;-83
2023/10/14 07:32:42;;;;;;;16.08;3.60;;;9.90;99.90;;;;;;4901640;29;20575;-83
2023/10/14 07:35:11;;;;;;;49.72;31.95;;;9.90;99.90;;;;;;4900555;29;20051;-83
2023/10/14 07:37:48;;;;;;;20.48;10.30;;;9.90;99.90;;;;;;4898292;29;20048;-83
2023/10/14 07:40:31;;;;;;;36.83;19.10;;;10.00;99.90;;;;;;4900743;29;20044;-83
2023/10/14 07:43:13;;;;;;;35.53;14.20;;;10.10;99.90;;;;;;4882803;29;20049;-83
2023/10/14 07:45:43;;;;;;;48.38;24.15;;;10.40;99.90;;;;;;4883833;29;20127;-84
2023/10/14 07:48:12;;;;;;;58.05;28.77;;;11.30;99.90;;;;;;4900595;29;20080;-83
2023/10/14 07:50:40;;;;;;;34.35;13.27;;;10.20;99.90;;;;;;4899427;29;20048;-84
2023/10/14 07:53:07;;;;;;;19.20;4.72;;;10.30;99.90;;;;;;4898557;29;20645;-84
2023/10/14 07:55:42;;;;;;;36.83;14.65;;;10.40;99.90;;;;;;4900401;29;20048;-84
2023/10/14 07:58:11;;;;;;;31.02;14.35;;;10.50;99.90;;;;;;4892305;29;20052;-84
2023/10/14 08:00:50;;;;;;;17.95;3.92;;;10.50;99.90;;;;;;4882143;29;20501;-84
2023/10/14 08:03:36;;;;;;;17.77;3.25;;;10.60;99.90;;;;;;4900165;29;20044;-83
2023/10/14 08:06:05;;;;;;;21.25;7.63;;;10.70;99.90;;;;;;4900267;29;20040;-83
2023/10/14 08:08:52;;;;;;;28.65;13.00;;;10.80;99.90;;;;;;4900078;29;20119;-83
2023/10/14 08:11:18;;;;;;;17.52;4.45;;;10.90;99.90;;;;;;4900409;29;20129;-83
2023/10/14 08:13:56;;;;;;;11.18;2.80;;;12.00;99.90;;;;;;4899493;29;20571;-83
2023/10/14 08:16:34;;;;;;;17.95;3.35;;;11.00;99.90;;;;;;4897686;29;20044;-85
2023/10/14 08:19:06;;;;;;;16.33;4.35;;;11.00;99.90;;;;;;4881832;29;20044;-84
2023/10/14 08:21:36;;;;;;;39.85;14.95;;;12.50;99.90;;;;;;4892478;29;20044;-83
2023/10/14 08:24:05;;;;;;;24.55;7.28;;;12.10;99.90;;;;;;4896262;29;20044;-83
2023/10/14 08:26:37;;;;;;;32.08;10.68;;;11.40;99.90;;;;;;4947801;23;20087;-83
2023/10/14 08:29:20;;;;;;;23.58;7.15;;;11.40;99.90;;;;;;4899703;29;20488;-83
2023/10/14 08:32:04;;;;;;;12.18;2.78;;;10.80;99.90;;;;;;4918590;29;20276;-82
2023/10/14 08:34:45;;;;;;;25.33;9.15;;;11.50;99.90;;;;;;4887118;29;20040;-83
2023/10/14 08:37:10;;;;;;;14.70;3.97;;;11.00;99.90;;;;;;4907629;29;20452;-83
2023/10/14 08:39:40;;;;;;;21.40;7.03;;;13.00;99.90;;;;;;4914343;29;20036;-84
2023/10/14 08:42:09;;;;;;;16.23;3.95;;;12.90;99.90;;;;;;4909568;29;20493;-83
2023/10/14 08:44:42;;;;;;;17.05;4.07;;;13.30;99.90;;;;;;4899818;29;20043;-83
2023/10/14 08:47:22;;;;;;;17.98;5.40;;;11.90;99.90;;;;;;4915634;29;20043;-84
2023/10/14 08:50:09;;;;;;;14.27;2.50;;;13.10;99.90;;;;;;4899260;29;20056;-83
2023/10/14 08:52:38;;;;;;;11.65;2.42;;;12.30;99.90;;;;;;4896395;29;20477;-84
2023/10/14 08:55:21;;;;;;;15.93;4.00;;;13.50;99.90;;;;;;4896109;29;20091;-82
2023/10/14 08:58:01;;;;;;;17.25;5.13;;;13.60;99.90;;;;;;4881500;29;20420;-82
2023/10/14 09:00:29;;;;;;;18.13;4.03;;;13.40;99.90;;;;;;4881657;29;20048;-81
2023/10/14 09:02:57;;;;;;;13.98;2.78;;;12.40;99.90;;;;;;4904050;29;20044;-82
2023/10/14 09:05:26;;;;;;;13.05;2.65;;;13.20;99.90;;;;;;4899543;29;20048;-83
2023/10/14 09:07:55;;;;;;;10.05;2.17;;;12.50;99.90;;;;;;4898874;29;20048;-83
2023/10/14 09:10:24;;;;;;;12.10;2.45;;;12.60;99.90;;;;;;4898921;29;20449;-84
2023/10/14 09:13:08;;;;;;;15.32;2.72;;;13.10;99.90;;;;;;4899948;29;20059;-83
2023/10/14 09:15:44;;;;;;;13.73;2.63;;;12.80;99.90;;;;;;4899597;29;20048;-83
2023/10/14 09:18:20;;;;;;;16.58;2.63;;;13.80;99.90;;;;;;4899584;29;20044;-83
2023/10/14 09:20:53;;;;;;;10.93;2.78;;;12.90;99.90;;;;;;4899336;29;20058;-82
2023/10/14 09:23:24;;;;;;;16.70;2.67;;;13.00;99.90;;;;;;4898723;29;20040;-84
2023/10/14 09:26:04;;;;;;;15.75;2.63;;;12.90;99.90;;;;;;4899487;29;20127;-85
2023/10/14 09:28:40;;;;;;;12.98;2.60;;;12.70;99.90;;;;;;4899249;29;20052;-85
2023/10/14 09:31:08;;;;;;;15.55;2.20;;;13.20;99.90;;;;;;4900010;29;20047;-86
2023/10/14 09:33:36;;;;;;;13.10;2.70;;;13.50;99.90;;;;;;4915732;29;20044;-84
2023/10/14 09:36:11;;;;;;;14.50;2.40;;;12.80;99.90;;;;;;4915453;29;20461;-84
2023/10/14 09:38:39;;;;;;;13.00;2.40;;;12.80;99.90;;;;;;4914606;29;20512;-85
2023/10/14 09:41:10;;;;;;;19.30;2.67;;;13.70;99.90;;;;;;4899576;29;20047;-86
2023/10/14 09:43:42;;;;;;;13.23;2.45;;;13.10;99.90;;;;;;4900165;29;20048;-86
2023/10/14 09:46:11;;;;;;;9.95;1.92;;;14.00;99.90;;;;;;4899227;29;20040;-83
2023/10/14 09:48:38;;;;;;;13.02;2.40;;;13.20;99.90;;;;;;4914802;29;20059;-84
2023/10/14 09:51:06;;;;;;;15.80;2.47;;;13.10;99.90;;;;;;4913748;29;20036;-84
2023/10/14 09:53:33;;;;;;;9.70;1.90;;;14.00;99.90;;;;;;4916058;29;20408;-85
2023/10/14 09:56:06;;;;;;;12.15;2.30;;;13.10;99.90;;;;;;4915750;29;20059;-83
2023/10/14 09:58:34;;;;;;;12.80;2.28;;;13.20;99.90;;;;;;4914441;29;20041;-84
2023/10/14 10:01:04;;;;;;;10.52;2.55;;;13.30;99.90;;;;;;4915275;29;20456;-86
2023/10/14 10:03:37;;;;;;;9.50;2.15;;;14.10;99.90;;;;;;4899370;29;20396;-86
2023/10/14 10:06:47;;;;;;;11.43;2.30;;;13.30;99.90;;;;;;4898838;29;20048;-86
2023/10/14 10:09:47;;;;;;;11.10;2.47;;;13.40;99.90;;;;;;4866885;29;20057;-85
2023/10/14 10:12:16;;;;;;;13.68;2.35;;;13.40;99.90;;;;;;4912549;29;20385;-85
2023/10/14 10:14:45;;;;;;;16.73;2.15;;;13.50;99.90;;;;;;4914550;29;20103;-86
2023/10/14 10:17:12;;;;;;;13.68;2.75;;;13.60;99.90;;;;;;4896205;29;20052;-86
2023/10/14 10:20:48;;;;;;;14.85;2.38;;;13.60;99.90;;;;;;4897852;29;20476;-86
2023/10/14 10:23:09;;;;;;;10.88;2.25;;;13.60;99.90;;;;;;4897163;29;20087;-83
2023/10/14 10:25:35;;;;;;;11.82;2.25;;;14.60;99.90;;;;;;4918456;29;20456;-84
2023/10/14 10:28:25;;;;;;;12.13;2.40;;;14.50;99.90;;;;;;4938473;23;20056;-84
2023/10/14 10:31:13;;;;;;;13.32;2.50;;;13.50;99.90;;;;;;4921692;29;20094;-83
2023/10/14 10:33:53;;;;;;;12.45;2.38;;;13.40;99.90;;;;;;4936899;29;20103;-84
2023/10/14 10:36:37;;;;;;;12.18;2.35;;;13.30;99.90;;;;;;4921417;29;20040;-83
2023/10/14 10:39:15;;;;;;;14.77;2.35;;;13.40;99.90;;;;;;4921882;29;20040;-85
2023/10/14 10:41:41;;;;;;;9.07;2.00;;;13.20;99.90;;;;;;4920806;29;20055;-83
2023/10/14 10:44:09;;;;;;;10.38;1.73;;;13.00;99.90;;;;;;4920439;29;20402;-84
2023/10/14 10:46:41;;;;;;;9.32;1.77;;;13.90;99.90;;;;;;4928242;29;20504;-85
2023/10/14 10:49:07;;;;;;;11.32;1.90;;;12.70;99.90;;;;;;4920648;29;20039;-86
2023/10/14 10:51:44;;;;;;;;;;;;;;;;;;;;;
2023/10/14 10:54:22;;;;;;;10.63;2.10;;;13.20;99.90;;;;;;4919972;29;20241;-86
2023/10/14 10:56:48;;;;;;;9.35;2.00;;;13.70;99.90;;;;;;4937230;29;20439;-86
2023/10/14 10:59:14;;;;;;;10.00;2.30;;;14.20;99.90;;;;;;4939292;29;20154;-88
2023/10/14 11:01:40;;;;;;;9.80;1.90;;;14.10;99.90;;;;;;4920407;29;20055;-84
2023/10/14 11:04:12;;;;;;;8.35;1.80;;;14.70;99.90;;;;;;4912476;29;20043;-85
2023/10/14 11:06:53;;;;;;;11.32;1.83;;;14.90;99.90;;;;;;4922062;29;20103;-85
2023/10/14 11:09:18;;;;;;;11.05;1.90;;;15.10;99.90;;;;;;4929328;29;21129;-83
2023/10/14 11:12:01;;;;;;;12.30;2.13;;;15.40;99.90;;;;;;4934896;29;20075;-84
2023/10/14 11:14:39;;;;;;;17.52;2.60;;;14.00;99.90;;;;;;4927170;29;20040;-83
2023/10/14 11:17:16;;;;;;;9.85;1.90;;;14.90;99.90;;;;;;4927128;29;20453;-83
2023/10/14 11:19:43;;;;;;;10.93;2.00;;;13.70;99.90;;;;;;4927476;29;20043;-83
2023/10/14 11:22:15;;;;;;;15.07;2.60;;;15.00;99.90;;;;;;4925903;29;20401;-82
2023/10/14 11:24:42;;;;;;;18.52;2.88;;;13.70;99.90;;;;;;4909656;29;20040;-83
2023/10/14 11:27:13;;;;;;;11.82;1.90;;;14.70;99.90;;;;;;4926863;29;20070;-83
2023/10/14 11:29:40;;;;;;;11.38;1.90;;;14.30;99.90;;;;;;4926139;29;20055;-84
2023/10/14 11:32:18;;;;;;;11.50;2.00;;;14.50;99.90;;;;;;4925619;29;20052;-83
2023/10/14 11:34:51;;;;;;;10.68;1.80;;;14.50;99.90;;;;;;4925206;29;20076;-84
2023/10/14 11:37:17;;;;;;;9.27;2.03;;;14.30;99.90;;;;;;4924704;29;20047;-84
2023/10/14 11:39:43;;;;;;;8.55;1.83;;;15.40;99.90;;;;;;4927566;29;20043;-83
2023/10/14 11:42:09;;;;;;;17.23;3.08;;;15.50;99.90;;;;;;4925343;29;20534;-84
2023/10/14 11:44:36;;;;;;;9.45;2.28;;;14.30;99.90;;;;;;4925383;29;20130;-83
2023/10/14 11:47:07;;;;;;;9.23;1.88;;;14.40;99.90;;;;;;4926995;29;20076;-83
2023/10/14 11:49:36;;;;;;;8.35;1.83;;;14.60;99.90;;;;;;4926061;29;20044;-86
2023/10/14 11:52:04;;;;;;;10.00;1.98;;;15.00;99.90;;;;;;4908783;29;20088;-84
2023/10/14 11:54:48;;;;;;;9.80;2.05;;;14.80;99.90;;;;;;4911085;29;20491;-85
2023/10/14 11:57:45;;;;;;;12.90;2.25;;;15.00;99.90;;;;;;4916283;29;20102;-83
2023/10/14 12:00:16;;;;;;;18.58;4.90;;;14.90;99.90;;;;;;4909143;29;20043;-85
2023/10/14 12:02:55;;;;;;;16.55;3.60;;;15.10;99.90;;;;;;4911280;29;20058;-85
2023/10/14 12:05:24;;;;;;;11.57;2.08;;;15.60;99.90;;;;;;4920180;29;20040;-85
2023/10/14 12:07:52;;;;;;;9.68;1.98;;;15.70;99.90;;;;;;4917498;29;20048;-86
2023/10/14 12:10:18;;;;;;;9.32;1.90;;;15.70;99.90;;;;;;4915873;29;20507;-86
2023/10/14 12:12:52;;;;;;;11.02;1.77;;;15.50;99.90;;;;;;4915684;29;20052;-85
2023/10/14 12:15:18;;;;;;;9.18;1.70;;;15.50;99.90;;;;;;4916193;29;20047;-85
2023/10/14 12:17:45;;;;;;;15.02;3.08;;;15.70;99.90;;;;;;4916970;29;20200;-84
2023/10/14 12:20:11;;;;;;;9.02;1.73;;;15.50;99.90;;;;;;4915485;29;20127;-85
2023/10/14 12:22:38;;;;;;;9.15;1.70;;;14.60;99.90;;;;;;4917357;29;20151;-84
2023/10/14 12:25:04;;;;;;;8.68;1.60;;;14.50;99.90;;;;;;4935532;29;20103;-85
2023/10/14 12:27:30;;;;;;;7.95;1.52;;;14.20;99.90;;;;;;4918062;29;20047;-82
2023/10/14 12:30:00;;;;;;;5.53;1.40;;;14.50;99.90;;;;;;4929854;29;20404;-84
2023/10/14 12:32:42;;;;;;;7.78;1.55;;;14.90;99.90;;;;;;4916500;29;20035;-85
2023/10/14 12:35:27;;;;;;;4.43;1.40;;;15.10;99.90;;;;;;4917499;29;20056;-84
2023/10/14 12:38:42;;;;;;;6.68;1.60;;;15.30;99.90;;;;;;4910792;29;20079;-86
2023/10/14 12:41:26;;;;;;;8.70;1.60;;;13.70;99.90;;;;;;4876161;29;20109;-84
2023/10/14 12:44:13;;;;;;;8.13;1.70;;;14.30;99.90;;;;;;4880489;29;20088;-84
2023/10/14 12:46:51;;;;;;;10.07;1.98;;;13.40;99.90;;;;;;4879450;29;20051;-86
2023/10/14 12:50:02;;;;;;;10.68;1.92;;;13.90;99.90;;;;;;4880149;29;20425;-85
2023/10/14 12:52:41;;;;;;;9.57;1.95;;;12.70;99.90;;;;;;4858405;29;20513;-84
2023/10/14 12:55:42;;;;;;;10.48;2.10;;;13.20;99.90;;;;;;4854418;29;20485;-86
2023/10/14 12:58:23;;;;;;;9.48;1.83;;;12.80;99.90;;;;;;4879521;29;20478;-84
2023/10/14 13:00:48;;;;;;;9.38;1.80;;;13.80;99.90;;;;;;4886657;29;20483;-84
2023/10/14 13:03:19;;;;;;;7.85;1.80;;;13.40;99.90;;;;;;4918763;29;20054;-85
2023/10/14 13:06:01;;;;;;;7.97;1.80;;;12.50;99.90;;;;;;4925836;23;20054;-84
2023/10/14 13:08:38;;;;;;;11.75;1.90;;;13.70;99.90;;;;;;4898072;29;20051;-84
2023/10/14 13:11:04;;;;;;;9.95;2.22;;;13.80;99.90;;;;;;4900359;29;20084;-85
2023/10/14 13:13:30;;;;;;;9.05;1.85;;;13.20;99.90;;;;;;4913531;29;20048;-84
2023/10/14 13:15:58;;;;;;;11.23;2.60;;;13.60;99.90;;;;;;4898502;29;20054;-85
2023/10/14 13:19:14;;;;;;;;;;;;;;;;;;;;;
2023/10/14 13:22:09;;;;;;;9.90;2.00;;;14.00;99.90;;;;;;4916229;29;20138;-84
2023/10/14 13:24:49;;;;;;;10.13;2.17;;;14.30;99.90;;;;;;4930814;29;20059;-85
2023/10/14 13:27:21;;;;;;;9.85;1.95;;;14.30;99.90;;;;;;4918485;29;20047;-86
2023/10/14 13:29:52;;;;;;;11.90;2.10;;;14.60;99.90;;;;;;4917909;29;20500;-85
2023/10/14 13:32:26;;;;;;;11.13;2.13;;;13.50;99.90;;;;;;4918625;29;20047;-84
2023/10/14 13:34:53;;;;;;;11.07;2.33;;;13.90;99.90;;;;;;4913453;29;20428;-84
2023/10/14 13:41:03;;;;;;;16.02;2.72;;;13.70;99.90;;;;;;4876503;29;20513;-84
2023/10/14 13:43:45;;;;;;;12.90;2.72;;;13.70;99.90;;;;;;4865661;29;20088;-83
2023/10/14 13:46:12;;;;;;;11.90;2.20;;;14.80;99.90;;;;;;4880519;29;20104;-84
2023/10/14 13:48:40;;;;;;;12.10;2.45;;;13.60;99.90;;;;;;4887267;29;20040;-84
2023/10/14 13:51:09;;;;;;;11.48;2.45;;;14.70;99.90;;;;;;4914707;29;20044;-83
2023/10/14 13:53:58;;;;;;;12.00;2.03;;;13.50;99.90;;;;;;4899330;29;20128;-83
2023/10/14 13:57:03;;;;;;;12.48;2.60;;;13.60;99.90;;;;;;4898944;29;20083;-83
2023/10/14 13:59:29;;;;;;;10.98;2.03;;;13.20;99.90;;;;;;4901953;29;20052;-83
2023/10/14 14:01:55;;;;;;;11.50;2.40;;;14.30;99.90;;;;;;4903400;29;20054;-83
2023/10/14 14:04:20;;;;;;;9.63;2.38;;;14.30;99.90;;;;;;4902193;29;20078;-83
2023/10/14 14:06:49;;;;;;;10.50;2.30;;;13.70;99.90;;;;;;4903177;29;20063;-84
2023/10/14 14:09:15;;;;;;;9.57;2.10;;;13.60;99.90;;;;;;4903436;29;20054;-83
2023/10/14 14:11:40;;;;;;;11.57;2.30;;;14.20;99.90;;;;;;4901329;29;20536;-82
2023/10/14 14:14:06;;;;;;;7.20;1.83;;;14.40;99.90;;;;;;4902426;29;20044;-83
2023/10/14 14:16:32;;;;;;;10.90;2.05;;;14.00;99.90;;;;;;4917509;29;20422;-83
2023/10/14 14:19:00;;;;;;;11.82;2.17;;;14.10;99.90;;;;;;4902096;29;20044;-84
2023/10/14 14:21:25;;;;;;;11.27;2.05;;;14.20;99.90;;;;;;4902698;29;20044;-83
2023/10/14 14:23:52;;;;;;;11.18;2.30;;;14.30;99.90;;;;;;4903595;29;20043;-82
2023/10/14 14:26:20;;;;;;;12.85;2.25;;;14.40;99.90;;;;;;4901852;29;20485;-83
2023/10/14 14:29:08;;;;;;;15.52;5.60;;;13.70;99.90;;;;;;4902523;29;20043;-82
2023/10/14 14:31:50;;;;;;;12.02;2.40;;;13.70;99.90;;;;;;4900111;29;20072;-82